createdAt,value
2019-04-22T00:02:42.288Z,100818.19
2019-04-22T00:05:14.264Z,100822.50
2019-04-22T00:08:01.630Z,100827.52
2019-04-22T00:10:41.993Z,100823.27
2019-04-22T00:13:10.417Z,100824.99
2019-04-22T00:15:37.068Z,100819.48
2019-04-22T00:20:35.340Z,100809.52
2019-04-22T00:23:14.120Z,100808.67
2019-04-22T00:25:52.041Z,100803.84
2019-04-22T00:30:56.113Z,100806.52
2019-04-22T00:33:26.523Z,100806.55
2019-04-22T00:36:04.431Z,100803.88
2019-04-22T00:38:42.168Z,100805.75
2019-04-22T00:41:05.731Z,100808.70
2019-04-22T00:43:45.856Z,100803.52
2019-04-22T00:46:10.969Z,100804.25
2019-04-22T00:48:57.284Z,100799.44
2019-04-22T00:51:26.201Z,100802.41
2019-04-22T00:53:56.109Z,100792.77
2019-04-22T00:56:24.644Z,100787.98
2019-04-22T00:58:59.126Z,100799.38
2019-04-22T01:01:31.966Z,100796.26
2019-04-22T01:04:12.502Z,100811.30
2019-04-22T01:06:38.841Z,100804.80
2019-04-22T01:09:13.668Z,100814.88
2019-04-22T01:11:45.396Z,100814.36
2019-04-22T01:14:21.949Z,100809.55
2019-04-22T01:16:54.779Z,100803.70
2019-04-22T01:19:36.683Z,100803.84
2019-04-22T01:21:57.963Z,100799.72
2019-04-22T01:24:26.423Z,100802.69
2019-04-22T01:26:58.184Z,100802.31
2019-04-22T01:29:26.200Z,100796.85
2019-04-22T01:31:49.087Z,100800.75
2019-04-22T01:34:36.384Z,100798.52
2019-04-22T01:37:07.724Z,100786.57
2019-04-22T01:39:49.857Z,100795.07
2019-04-22T01:42:25.220Z,100775.34
2019-04-22T01:44:56.978Z,100780.84
2019-04-22T01:47:34.247Z,100779.89
2019-04-22T01:50:06.141Z,100782.75
2019-04-22T01:52:41.555Z,100779.16
2019-04-22T01:55:19.005Z,100773.11
2019-04-22T01:57:45.176Z,100770.12
2019-04-22T02:00:05.041Z,100754.97
2019-04-22T02:02:48.777Z,100759.16
2019-04-22T02:05:24.530Z,100762.42
2019-04-22T02:08:02.551Z,100755.52
2019-04-22T02:10:36.043Z,100752.67
2019-04-22T02:13:06.890Z,100747.56
2019-04-22T02:15:45.095Z,100748.97
2019-04-22T02:18:17.906Z,100750.26
2019-04-22T02:20:45.487Z,100743.17
2019-04-22T02:23:45.862Z,100740.34
2019-04-22T02:26:23.015Z,100740.34
2019-04-22T02:31:26.007Z,100739.59
2019-04-22T02:36:22.616Z,100729.11
2019-04-22T02:41:28.480Z,100732.77
2019-04-22T02:44:13.513Z,100722.75
2019-04-22T02:46:45.122Z,100722.94
2019-04-22T02:49:10.949Z,100720.86
2019-04-22T02:51:33.190Z,100719.65
2019-04-22T02:59:14.845Z,100712.29
2019-04-22T03:01:47.385Z,100709.66
2019-04-22T03:04:23.704Z,100707.05
2019-04-22T03:12:09.673Z,100688.37
2019-04-22T03:14:48.306Z,100697.94
2019-04-22T03:17:17.612Z,100695.38
2019-04-22T03:22:16.699Z,100697.67
2019-04-22T03:25:24.094Z,100694.17
2019-04-22T03:27:27.514Z,100693.88
2019-04-22T03:30:45.553Z,100696.41
2019-04-22T03:33:04.952Z,100688.45
2019-04-22T03:37:56.115Z,100688.93
2019-04-22T03:40:30.811Z,100687.78
2019-04-22T03:53:11.446Z,100687.23
2019-04-22T03:55:45.079Z,100668.91
2019-04-22T03:58:28.331Z,100686.45
2019-04-22T04:00:47.469Z,100690.42
2019-04-22T04:03:21.076Z,100678.22
2019-04-22T04:05:57.876Z,100684.78
2019-04-22T04:10:53.530Z,100682.64
2019-04-22T04:13:33.848Z,100677.80
2019-04-22T04:16:04.733Z,100680.52
2019-04-22T04:18:47.461Z,100683.71
2019-04-22T04:24:01.348Z,100686.95
2019-04-22T04:26:33.546Z,100688.95
2019-04-22T04:31:40.962Z,100687.02
2019-04-22T04:34:06.516Z,100684.67
2019-04-22T04:36:38.878Z,100685.30
2019-04-22T04:39:05.550Z,100690.36
2019-04-22T04:44:23.404Z,100683.05
2019-04-22T04:46:49.736Z,100690.44
2019-04-22T04:54:31.415Z,100684.55
2019-04-22T04:56:56.728Z,100687.86
2019-04-22T05:02:10.387Z,100683.86
2019-04-22T05:04:53.308Z,100684.23
2019-04-22T05:09:47.364Z,100685.33
2019-04-22T05:12:25.291Z,100678.97
2019-04-22T05:14:50.474Z,100687.81
2019-04-22T05:17:29.266Z,100681.91
2019-04-22T05:20:00.806Z,100683.54
2019-04-22T05:22:29.811Z,100687.80
2019-04-22T05:24:58.369Z,100686.57
2019-04-22T05:27:34.173Z,100686.25
2019-04-22T05:30:22.911Z,100692.00
2019-04-22T05:32:39.986Z,100686.18
2019-04-22T05:37:43.258Z,100691.41
2019-04-22T05:40:22.098Z,100700.48
2019-04-22T05:42:53.144Z,100690.64
2019-04-22T05:45:23.100Z,100687.63
2019-04-22T05:50:25.026Z,100695.38
2019-04-22T05:53:03.318Z,100687.14
2019-04-22T05:55:36.098Z,100684.37
2019-04-22T05:58:10.782Z,100686.98
2019-04-22T06:01:07.190Z,100683.70
2019-04-22T06:03:11.909Z,100692.80
2019-04-22T06:05:53.801Z,100690.02
2019-04-22T06:08:22.194Z,100690.21
2019-04-22T06:10:55.680Z,100691.67
2019-04-22T06:13:23.303Z,100690.05
2019-04-22T06:15:59.017Z,100693.48
2019-04-22T06:18:34.149Z,100684.00
2019-04-22T06:21:11.452Z,100684.00
2019-04-22T06:23:42.146Z,100677.07
2019-04-22T06:26:22.330Z,100683.64
2019-04-22T06:28:51.917Z,100678.88
2019-04-22T06:33:56.184Z,100677.31
2019-04-22T06:36:29.512Z,100677.34
2019-04-22T06:39:05.131Z,100677.45
2019-04-22T06:41:39.082Z,100671.59
2019-04-22T06:44:10.808Z,100681.53
2019-04-22T06:46:39.969Z,100681.77
2019-04-22T06:49:19.562Z,100681.59
2019-04-22T06:51:46.772Z,100686.39
2019-04-22T06:54:22.294Z,100681.25
2019-04-22T06:56:54.649Z,100683.80
2019-04-22T06:59:26.460Z,100684.42
2019-04-22T07:04:30.268Z,100685.86
2019-04-22T07:12:11.634Z,100684.03
2019-04-22T07:14:47.260Z,100685.08
2019-04-22T07:17:15.605Z,100684.72
2019-04-22T07:20:04.319Z,100680.11
2019-04-22T07:22:24.282Z,100681.67
2019-04-22T07:24:58.293Z,100684.08
2019-04-22T07:27:27.844Z,100674.45
2019-04-22T07:30:09.255Z,100679.89
2019-04-22T07:33:01.128Z,100673.39
2019-04-22T07:35:16.891Z,100679.68
2019-04-22T07:37:43.558Z,100672.47
2019-04-22T07:40:16.895Z,100678.69
2019-04-22T07:42:49.397Z,100675.27
2019-04-22T07:45:25.447Z,100674.92
2019-04-22T07:48:09.524Z,100676.60
2019-04-22T07:50:49.397Z,100677.95
2019-04-22T07:53:05.461Z,100684.36
2019-04-22T07:55:39.774Z,100669.58
2019-04-22T07:58:11.724Z,100673.80
2019-04-22T08:00:52.742Z,100666.20
2019-04-22T08:03:29.104Z,100668.03
2019-04-22T08:06:02.940Z,100659.79
2019-04-22T08:08:26.031Z,100650.82
2019-04-22T08:11:11.775Z,100674.09
2019-04-22T08:16:10.586Z,100658.44
2019-04-22T08:18:39.056Z,100661.98
2019-04-22T08:21:12.373Z,100652.78
2019-04-22T08:24:01.257Z,100652.75
2019-04-22T08:26:19.311Z,100649.02
2019-04-22T08:28:56.126Z,100651.84
2019-04-22T08:31:32.343Z,100657.77
2019-04-22T08:34:01.838Z,100655.72
2019-04-22T08:36:31.721Z,100650.03
2019-04-22T08:39:07.902Z,100645.21
2019-04-22T08:41:43.564Z,100643.69
2019-04-22T08:44:17.410Z,100643.89
2019-04-22T08:47:04.333Z,100643.16
2019-04-22T08:49:10.162Z,100642.64
2019-04-22T08:51:49.491Z,100637.64
2019-04-22T08:54:28.359Z,100640.17
2019-04-22T08:56:59.336Z,100644.69
2019-04-22T08:59:36.917Z,100640.81
2019-04-22T09:02:09.328Z,100638.92
2019-04-22T09:04:30.866Z,100636.53
2019-04-22T09:09:45.956Z,100628.41
2019-04-22T09:12:25.083Z,100624.89
2019-04-22T09:14:47.283Z,100637.32
2019-04-22T09:17:28.584Z,100623.32
2019-04-22T09:20:04.641Z,100615.67
2019-04-22T09:22:26.364Z,100626.17
2019-04-22T09:25:03.142Z,100624.41
2019-04-22T09:27:39.980Z,100610.39
2019-04-22T09:30:15.720Z,100604.05
2019-04-22T09:32:45.508Z,100603.23
2019-04-22T09:35:21.358Z,100604.62
2019-04-22T09:38:00.273Z,100596.74
2019-04-22T09:40:22.427Z,100597.25
2019-04-22T09:42:56.050Z,100599.73
2019-04-22T09:45:29.429Z,100593.08
2019-04-22T09:48:08.796Z,100590.09
2019-04-22T09:53:09.392Z,100575.94
2019-04-22T09:55:42.580Z,100584.55
2019-04-22T09:58:20.181Z,100580.74
2019-04-22T10:03:51.691Z,100579.26
2019-04-22T10:06:33.565Z,100574.73
2019-04-22T10:14:01.176Z,100564.34
2019-04-22T10:19:04.238Z,100554.25
2019-04-22T10:21:44.664Z,100560.67
2019-04-22T10:24:12.134Z,100551.53
2019-04-22T10:26:43.916Z,100547.09
2019-04-22T10:29:19.909Z,100544.72
2019-04-22T10:34:15.674Z,100543.45
2019-04-22T10:36:33.167Z,100543.85
2019-04-22T10:39:06.374Z,100531.44
2019-04-22T10:41:40.708Z,100535.41
2019-04-22T10:44:13.021Z,100536.39
2019-04-22T10:46:46.323Z,100530.23
2019-04-22T10:49:18.334Z,100523.16
2019-04-22T10:51:50.778Z,100533.08
2019-04-22T10:54:23.350Z,100519.67
2019-04-22T10:56:56.921Z,100528.59
2019-04-22T10:59:28.831Z,100521.23
2019-04-22T11:02:01.354Z,100523.70
2019-04-22T11:04:34.253Z,100518.77
2019-04-22T11:07:10.493Z,100517.95
2019-04-22T11:09:50.731Z,100512.52
2019-04-22T11:12:16.794Z,100511.64
2019-04-22T11:14:45.430Z,100509.30
2019-04-22T11:17:17.715Z,100505.44
2019-04-22T11:19:49.940Z,100498.17
2019-04-22T11:22:26.320Z,100489.74
2019-04-22T11:24:56.349Z,100485.52
2019-04-22T11:27:26.824Z,100488.55
2019-04-22T11:29:59.469Z,100476.77
2019-04-22T11:32:30.851Z,100488.23
2019-04-22T11:35:03.639Z,100467.52
2019-04-22T11:37:36.785Z,100483.44
2019-04-22T11:40:19.265Z,100472.41
2019-04-22T11:42:41.412Z,100472.41
2019-04-22T11:45:15.328Z,100474.23
2019-04-22T11:47:47.585Z,100461.61
2019-04-22T11:50:21.805Z,100463.27
2019-04-22T11:52:53.203Z,100459.73
2019-04-22T11:55:24.732Z,100459.41
2019-04-22T11:57:56.347Z,100451.66
2019-04-22T12:00:33.064Z,100439.56
2019-04-22T12:03:05.170Z,100446.91
2019-04-22T12:05:37.581Z,100447.23
2019-04-22T12:08:09.378Z,100433.42
2019-04-22T12:10:46.919Z,100435.58
2019-04-22T12:13:14.014Z,100435.27
2019-04-22T12:15:47.035Z,100429.98
2019-04-22T12:18:19.517Z,100429.78
2019-04-22T12:20:51.019Z,100425.85
2019-04-22T12:23:23.133Z,100427.37
2019-04-22T12:26:02.079Z,100417.41
2019-04-22T12:28:28.830Z,100413.36
2019-04-22T12:31:01.525Z,100411.09
2019-04-22T12:33:33.071Z,100415.53
2019-04-22T12:36:04.718Z,100401.28
2019-04-22T12:38:37.773Z,100402.75
2019-04-22T12:41:11.979Z,100388.03
2019-04-22T12:43:43.088Z,100399.09
2019-04-22T12:46:16.219Z,100394.05
2019-04-22T12:48:47.964Z,100394.52
2019-04-22T12:51:20.832Z,100392.53
2019-04-22T12:53:52.860Z,100380.69
2019-04-22T12:56:25.672Z,100380.77
2019-04-22T12:58:57.186Z,100383.16
2019-04-22T13:01:29.013Z,100370.54
2019-04-22T13:04:05.733Z,100377.80
2019-04-22T13:06:35.429Z,100375.05
2019-04-22T13:09:08.816Z,100370.86
2019-04-22T13:11:40.705Z,100378.34
2019-04-22T13:14:12.767Z,100378.00
2019-04-22T13:16:44.943Z,100374.33
2019-04-22T13:19:18.879Z,100362.48
2019-04-22T13:21:50.877Z,100363.12
2019-04-22T13:24:23.791Z,100362.05
2019-04-22T13:26:55.165Z,100366.25
2019-04-22T13:29:27.580Z,100369.77
2019-04-22T13:31:58.693Z,100355.85
2019-04-22T13:34:39.583Z,100360.48
2019-04-22T13:37:05.139Z,100357.28
2019-04-22T13:39:36.810Z,100343.33
2019-04-22T13:42:12.407Z,100345.86
2019-04-22T13:44:41.790Z,100340.12
2019-04-22T13:47:30.839Z,100326.83
2019-04-22T13:50:41.207Z,100336.77
2019-04-22T13:55:40.878Z,100330.20
2019-04-22T13:57:44.066Z,100325.31
2019-04-22T14:00:00.694Z,100326.62
2019-04-22T14:02:55.156Z,100317.63
2019-04-22T14:05:28.614Z,100313.55
2019-04-22T14:08:02.567Z,100319.07
2019-04-22T14:10:38.624Z,100316.72
2019-04-22T14:13:10.004Z,100312.55
2019-04-22T14:15:43.852Z,100308.27
2019-04-22T14:18:19.078Z,100318.90
2019-04-22T14:20:51.221Z,100316.95
2019-04-22T14:23:24.893Z,100305.58
2019-04-22T14:25:56.753Z,100303.25
2019-04-22T14:28:29.277Z,100303.09
2019-04-22T14:31:08.598Z,100297.86
2019-04-22T14:33:43.054Z,100267.38
2019-04-22T14:36:15.129Z,100297.52
2019-04-22T14:38:47.950Z,100296.16
2019-04-22T14:41:39.037Z,100291.11
2019-04-22T14:45:04.966Z,100288.44
2019-04-22T14:46:56.956Z,100278.67
2019-04-22T14:49:26.204Z,100282.02
2019-04-22T14:51:54.830Z,100274.13
2019-04-22T14:54:23.960Z,100276.66
2019-04-22T14:56:40.663Z,100282.73
2019-04-22T14:59:13.359Z,100279.01
2019-04-22T15:01:45.702Z,100276.57
2019-04-22T15:04:17.531Z,100258.58
2019-04-22T15:06:50.342Z,100266.47
2019-04-22T15:09:24.112Z,100265.88
2019-04-22T15:12:09.407Z,100259.31
2019-04-22T15:14:29.963Z,100258.91
2019-04-22T15:17:27.096Z,100261.83
2019-04-22T15:20:05.988Z,100256.39
2019-04-22T15:22:38.845Z,100261.79
2019-04-22T15:25:12.476Z,100270.74
2019-04-22T15:27:43.945Z,100263.88
2019-04-22T15:30:15.293Z,100256.09
2019-04-22T15:32:47.495Z,100251.41
2019-04-22T15:35:19.468Z,100254.99
2019-04-22T15:37:51.203Z,100259.39
2019-04-22T15:40:22.718Z,100252.66
2019-04-22T15:42:55.030Z,100243.72
2019-04-22T15:45:26.399Z,100250.63
2019-04-22T15:47:59.800Z,100248.73
2019-04-22T15:50:31.168Z,100248.63
2019-04-22T15:53:04.552Z,100251.42
2019-04-22T15:55:38.926Z,100249.05
2019-04-22T15:58:11.871Z,100247.20
2019-04-22T16:00:59.339Z,100240.42
2019-04-22T16:03:20.413Z,100237.56
2019-04-22T16:05:52.280Z,100230.24
2019-04-22T16:08:24.696Z,100231.59
2019-04-22T16:10:57.773Z,100231.08
2019-04-22T16:13:32.326Z,100229.73
2019-04-22T16:16:02.737Z,100230.81
2019-04-22T16:18:33.854Z,100229.36
2019-04-22T16:21:06.968Z,100220.95
2019-04-22T16:23:52.114Z,100230.52
2019-04-22T16:26:42.479Z,100231.10
2019-04-22T16:29:15.852Z,100227.25
2019-04-22T16:31:49.571Z,100226.89
2019-04-22T16:34:21.688Z,100230.56
2019-04-22T16:36:54.489Z,100223.23
2019-04-22T16:39:26.924Z,100225.08
2019-04-22T16:42:00.442Z,100217.63
2019-04-22T16:44:34.400Z,100221.86
2019-04-22T16:47:05.770Z,100226.30
2019-04-22T16:49:37.375Z,100209.06
2019-04-22T16:52:09.997Z,100213.81
2019-04-22T16:54:42.097Z,100220.80
2019-04-22T16:57:13.797Z,100213.37
2019-04-22T16:59:46.587Z,100216.54
2019-04-22T17:02:56.132Z,100221.37
2019-04-22T17:05:52.142Z,100218.70
2019-04-22T17:08:24.601Z,100220.13
2019-04-22T17:10:56.053Z,100216.98
2019-04-22T17:13:31.998Z,100219.05
2019-04-22T17:16:02.378Z,100218.35
2019-04-22T17:18:35.067Z,100220.64
2019-04-22T17:21:08.679Z,100219.05
2019-04-22T17:23:41.313Z,100218.55
2019-04-22T17:26:12.664Z,100215.67
2019-04-22T17:28:43.940Z,100217.90
2019-04-22T17:31:16.437Z,100213.09
2019-04-22T17:33:48.838Z,100217.25
2019-04-22T17:36:22.595Z,100218.97
2019-04-22T17:39:11.006Z,100214.04
2019-04-22T17:41:46.443Z,100217.90
2019-04-22T17:44:37.808Z,100218.07
2019-04-22T17:47:04.960Z,100216.50
2019-04-22T17:49:53.795Z,100215.66
2019-04-22T17:52:25.131Z,100218.27
2019-04-22T17:54:51.637Z,100224.77
2019-04-22T17:57:32.536Z,100224.92
2019-04-22T18:00:07.007Z,100234.17
2019-04-22T18:02:32.322Z,100227.19
2019-04-22T18:05:00.959Z,100239.33
2019-04-22T18:08:03.810Z,100244.27
2019-04-22T18:13:01.865Z,100249.38
2019-04-22T18:15:23.788Z,100251.41
2019-04-22T18:18:09.125Z,100247.47
2019-04-22T18:20:30.513Z,100261.02
2019-04-22T18:22:56.979Z,100249.47
2019-04-22T18:25:41.720Z,100260.13
2019-04-22T18:28:20.311Z,100261.95
2019-04-22T18:30:41.184Z,100268.32
2019-04-22T18:33:19.026Z,100274.95
2019-04-22T18:35:48.839Z,100272.19
2019-04-22T18:38:44.033Z,100259.61
2019-04-22T18:41:02.400Z,100269.52
2019-04-22T18:43:35.707Z,100273.97
2019-04-22T18:46:11.387Z,100270.07
2019-04-22T18:48:40.509Z,100269.06
2019-04-22T18:51:27.671Z,100272.23
2019-04-22T18:54:09.518Z,100267.06
2019-04-22T18:56:39.148Z,100275.81
2019-04-22T18:59:03.704Z,100288.08
2019-04-22T19:01:25.928Z,100282.29
2019-04-22T19:04:09.023Z,100292.00
2019-04-22T19:06:55.586Z,100294.81
2019-04-22T19:09:38.214Z,100295.53
2019-04-22T19:12:18.104Z,100299.80
2019-04-22T19:14:45.557Z,100297.87
2019-04-22T19:17:28.547Z,100304.66
2019-04-22T19:19:49.746Z,100313.55
2019-04-22T19:22:16.310Z,100306.28
2019-04-22T19:24:47.327Z,100304.58
2019-04-22T19:27:26.699Z,100315.72
2019-04-22T19:29:57.818Z,100313.09
2019-04-22T19:32:35.376Z,100313.09
2019-04-22T19:35:03.767Z,100307.16
2019-04-22T19:37:32.696Z,100305.70
2019-04-22T19:40:34.211Z,100303.53
2019-04-22T19:42:54.747Z,100300.95
2019-04-22T19:45:15.653Z,100305.20
2019-04-22T19:47:58.535Z,100294.92
2019-04-22T19:50:31.219Z,100305.80
2019-04-22T19:52:59.534Z,100302.42
2019-04-22T19:55:29.483Z,100296.36
2019-04-22T19:58:00.097Z,100298.69
2019-04-22T20:01:13.455Z,100300.99
2019-04-22T20:06:41.357Z,100291.42
2019-04-22T20:09:20.615Z,100294.22
2019-04-22T20:11:53.005Z,100284.16
2019-04-22T20:14:22.984Z,100288.50
2019-04-22T20:16:48.991Z,100283.77
2019-04-22T20:19:41.409Z,100278.95
2019-04-22T20:22:03.400Z,100282.69
2019-04-22T20:24:22.654Z,100279.17
2019-04-22T20:27:13.636Z,100274.33
2019-04-22T20:29:42.192Z,100278.92
2019-04-22T20:32:20.232Z,100274.20
2019-04-22T20:34:51.277Z,100277.48
2019-04-22T20:37:29.893Z,100275.67
2019-04-22T20:39:57.090Z,100275.67
2019-04-22T20:42:48.660Z,100271.16
2019-04-22T20:45:04.213Z,100267.66
2019-04-22T20:47:33.381Z,100271.74
2019-04-22T20:50:10.898Z,100264.36
2019-04-22T20:55:13.123Z,100255.16
2019-04-22T20:57:53.559Z,100245.45
2019-04-22T21:00:19.799Z,100246.09
2019-04-22T21:02:48.883Z,100251.76
2019-04-22T21:05:24.846Z,100234.23
2019-04-22T21:08:06.346Z,100244.33
2019-04-22T21:10:32.362Z,100240.94
2019-04-22T21:13:05.510Z,100239.94
2019-04-22T21:15:53.132Z,100234.29
2019-04-22T21:18:15.654Z,100226.32
2019-04-22T21:20:51.773Z,100228.48
2019-04-22T21:23:21.632Z,100224.60
2019-04-22T21:25:55.281Z,100228.00
2019-04-22T21:28:33.188Z,100230.16
2019-04-22T21:31:04.683Z,100223.37
2019-04-22T21:33:31.352Z,100226.84
2019-04-22T21:36:30.222Z,100223.75
2019-04-22T21:38:43.649Z,100226.84
2019-04-22T21:41:19.003Z,100227.48
2019-04-22T21:43:52.658Z,100223.11
2019-04-22T21:46:27.885Z,100212.16
2019-04-22T21:48:59.807Z,100213.70
2019-04-22T21:51:39.367Z,100205.33
2019-04-22T21:54:06.901Z,100203.18
2019-04-22T21:57:11.804Z,100196.05
2019-04-22T21:59:30.980Z,100200.96
2019-04-22T22:02:09.912Z,100197.30
2019-04-22T22:04:41.325Z,100183.69
2019-04-22T22:07:05.330Z,100184.31
2019-04-22T22:09:49.008Z,100180.27
2019-04-22T22:12:26.528Z,100181.59
2019-04-22T22:14:58.866Z,100180.38
2019-04-22T22:17:28.301Z,100178.78
2019-04-22T22:19:57.954Z,100178.03
2019-04-22T22:22:46.606Z,100176.04
2019-04-22T22:25:14.373Z,100179.23
2019-04-22T22:27:40.543Z,100176.22
2019-04-22T22:30:38.767Z,100176.45
2019-04-22T22:32:53.812Z,100172.00
2019-04-22T22:35:24.501Z,100167.09
2019-04-22T22:37:57.625Z,100166.51
2019-04-22T22:40:19.901Z,100164.28
2019-04-22T22:42:51.473Z,100158.63
2019-04-22T22:45:34.877Z,100161.38
2019-04-22T22:48:21.858Z,100157.61
2019-04-22T22:50:49.211Z,100163.73
2019-04-22T22:53:36.970Z,100155.97
2019-04-22T22:55:57.983Z,100164.70
2019-04-22T22:58:37.532Z,100157.77
2019-04-22T23:01:06.452Z,100156.92
2019-04-22T23:06:20.604Z,100148.17
2019-04-22T23:08:52.693Z,100153.27
2019-04-22T23:11:41.843Z,100139.80
2019-04-22T23:13:57.788Z,100136.59
2019-04-22T23:16:18.245Z,100134.78
2019-04-22T23:18:57.670Z,100137.94
2019-04-22T23:21:38.528Z,100140.98
2019-04-22T23:24:41.441Z,100134.45
2019-04-22T23:27:08.207Z,100133.27
2019-04-22T23:29:57.531Z,100129.12
2019-04-22T23:32:31.776Z,100130.84
2019-04-22T23:35:16.699Z,100127.67
2019-04-22T23:37:52.372Z,100124.36
2019-04-22T23:40:35.758Z,100117.06
2019-04-22T23:43:00.291Z,100117.73
2019-04-22T23:45:33.336Z,100116.79
2019-04-22T23:59:14.900Z,100105.71
